Time;durP1;ratioP1;P1;durP2;ratioP2;P2;SDS_P1;SDS_P2;PMS_P1;PMS_P2;Temp;Humidity;BMP_temperature;BMP_pressure;BME280_temperature;BME280_humidity;BME280_pressure;Samples;Min_cycle;Max_cycle;Signal;HPM_P1;HPM_P2
2021/11/28 00:02:18;;;;;;;176.38;64.10;;;;;;;8.53;90.69;98698.38;5083433;28;20047;-68
2021/11/28 00:04:44;;;;;;;172.02;61.67;;;;;;;8.51;91.21;98694.28;5099558;28;20064;-68
2021/11/28 00:15:05;;;;;;;170.35;63.35;;;;;;;8.97;87.97;98713.56;5080085;28;20337;-69
2021/11/28 00:17:30;;;;;;;169.60;61.63;;;;;;;8.85;88.36;98715.00;5094515;28;20036;-68
2021/11/28 00:19:55;;;;;;;165.45;60.88;;;;;;;8.86;88.71;98716.63;5078383;28;20218;-68
2021/11/28 00:22:21;;;;;;;179.85;60.83;;;;;;;8.87;88.57;98710.34;5097093;28;20031;-68
2021/11/28 00:24:47;;;;;;;183.98;61.40;;;;;;;8.87;88.63;98713.00;5097911;28;20050;-68
2021/11/28 00:27:12;;;;;;;174.98;63.55;;;;;;;8.93;88.16;98723.66;5085783;28;20028;-69
2021/11/28 00:29:38;;;;;;;177.60;65.50;;;;;;;8.86;88.26;98745.66;5101599;28;20142;-69
2021/11/28 00:32:04;;;;;;;173.15;61.83;;;;;;;8.89;88.53;98738.22;5098188;28;20064;-68
2021/11/28 00:34:29;;;;;;;158.27;58.97;;;;;;;8.91;88.16;98748.59;5097302;28;20028;-68
2021/11/28 00:36:55;;;;;;;151.52;58.58;;;;;;;8.81;88.80;98750.66;5099205;28;20054;-69
2021/11/28 00:39:20;;;;;;;170.88;61.67;;;;;;;8.89;88.42;98751.41;5100271;28;20081;-68
2021/11/28 00:41:46;;;;;;;171.95;62.28;;;;;;;8.90;88.37;98752.25;5086015;28;20023;-68
2021/11/28 00:44:11;;;;;;;158.63;59.53;;;;;;;8.69;89.56;98736.22;5101411;28;20028;-68
2021/11/28 00:46:37;;;;;;;156.27;59.28;;;;;;;8.82;88.82;98717.97;5104378;28;20259;-68
2021/11/28 00:49:04;;;;;;;157.55;58.00;;;;;;;8.87;88.55;98713.00;5096380;28;20093;-68
2021/11/28 00:53:59;;;;;;;157.10;58.65;;;;;;;8.87;87.97;98663.66;5095760;28;20059;-68
2021/11/28 00:56:24;;;;;;;160.30;59.35;;;;;;;9.02;87.84;98663.69;5097824;28;20040;-68
2021/11/28 00:58:49;;;;;;;160.70;59.88;;;;;;;9.08;87.30;98655.06;5097506;28;20221;-68
2021/11/28 01:01:18;;;;;;;161.80;60.88;;;;;;;9.11;86.94;98657.34;5080949;28;20359;-69
2021/11/28 01:03:44;;;;;;;150.90;60.03;;;;;;;9.13;87.26;98665.09;5096408;28;20115;-68
2021/11/28 01:06:10;;;;;;;137.88;55.92;;;;;;;9.04;87.71;98651.13;5096381;28;20358;-68
2021/11/28 01:08:35;;;;;;;140.52;56.55;;;;;;;9.21;86.60;98646.53;5094545;28;20031;-68
2021/11/28 01:11:01;;;;;;;144.70;57.42;;;;;;;9.11;87.29;98653.88;5099699;28;20023;-68
2021/11/28 01:13:26;;;;;;;148.25;58.13;;;;;;;9.07;87.50;98655.25;5102789;28;20040;-69
2021/11/28 01:15:52;;;;;;;142.60;56.03;;;;;;;9.27;86.44;98653.72;5101593;28;20044;-69
2021/11/28 01:18:17;;;;;;;136.25;55.30;;;;;;;9.19;86.53;98657.28;5097625;28;20235;-68
2021/11/28 01:20:43;;;;;;;163.23;59.78;;;;;;;8.90;87.42;98658.03;5102114;28;20406;-68
2021/11/28 01:23:08;;;;;;;153.20;59.88;;;;;;;8.71;89.29;98662.97;5084804;28;20063;-68
2021/11/28 01:25:34;;;;;;;144.77;55.92;;;;;;;8.69;90.35;98657.88;5096804;28;20047;-68
2021/11/28 01:27:59;;;;;;;140.55;56.53;;;;;;;8.91;88.56;98651.75;5095931;28;20028;-68
2021/11/28 01:30:25;;;;;;;147.27;57.45;;;;;;;8.90;87.77;98634.25;5097744;28;20051;-68
2021/11/28 01:32:50;;;;;;;146.95;59.10;;;;;;;8.72;89.07;98633.75;5102688;28;20035;-68
2021/11/28 01:35:17;;;;;;;135.65;54.42;;;;;;;8.69;90.14;98633.28;5099081;28;20031;-68
2021/11/28 01:37:44;;;;;;;143.43;57.05;;;;;;;8.73;90.27;98624.84;5100204;28;20351;-68
2021/11/28 01:40:13;;;;;;;149.90;57.67;;;;;;;8.85;88.37;98623.41;5102966;28;20348;-68
2021/11/28 01:42:40;;;;;;;146.77;56.85;;;;;;;8.69;88.95;98623.56;5093937;28;20310;-68
2021/11/28 01:45:07;;;;;;;137.32;54.70;;;;;;;8.55;89.55;98630.44;5099053;28;20336;-67
2021/11/28 01:47:34;;;;;;;142.20;55.42;;;;;;;8.43;91.04;98615.19;5096340;28;20039;-68
2021/11/28 01:49:59;;;;;;;146.52;54.78;;;;;;;8.37;92.08;98616.72;5095694;28;20031;-68
2021/11/28 01:52:25;;;;;;;138.18;54.30;;;;;;;8.53;91.52;98615.75;5099530;28;20052;-69
2021/11/28 01:54:50;;;;;;;136.00;53.72;;;;;;;8.57;89.67;98604.69;5102232;28;20039;-68
2021/11/28 01:57:16;;;;;;;140.15;54.75;;;;;;;8.60;90.44;98606.97;5098461;28;20032;-68
2021/11/28 01:59:41;;;;;;;149.43;56.53;;;;;;;8.51;91.23;98602.75;5103062;28;20322;-68
2021/11/28 02:02:07;;;;;;;154.98;58.20;;;;;;;8.58;90.63;98608.97;5099574;28;20079;-68
2021/11/28 02:04:33;;;;;;;143.10;56.70;;;;;;;8.60;90.18;98591.13;5101499;28;20036;-68
2021/11/28 02:06:58;;;;;;;144.23;53.80;;;;;;;8.61;90.05;98591.97;5102331;28;20043;-68
2021/11/28 02:09:24;;;;;;;140.65;55.22;;;;;;;8.75;89.46;98601.72;5093944;28;20230;-68
2021/11/28 02:11:49;;;;;;;147.07;56.58;;;;;;;8.68;89.61;98615.81;5097165;28;20032;-67
2021/11/28 02:14:15;;;;;;;150.98;56.92;;;;;;;8.66;89.77;98618.63;5101788;28;20107;-68
2021/11/28 02:16:41;;;;;;;145.05;55.38;;;;;;;8.69;89.21;98607.72;5097897;28;20039;-68
2021/11/28 02:19:07;;;;;;;149.27;59.60;;;;;;;8.61;88.93;98600.69;5089491;28;20386;-68
2021/11/28 02:21:33;;;;;;;155.65;60.78;;;;;;;8.79;88.50;98608.28;5076760;28;20036;-68
2021/11/28 02:23:58;;;;;;;161.05;60.13;;;;;;;8.70;88.77;98616.47;5094349;28;20095;-68
2021/11/28 02:26:25;;;;;;;153.15;55.50;;;;;;;8.74;87.97;98610.66;5097305;28;20040;-68
2021/11/28 02:28:51;;;;;;;160.23;60.10;;;;;;;8.78;88.32;98621.66;5095550;28;20028;-68
2021/11/28 02:31:17;;;;;;;150.50;59.45;;;;;;;8.77;88.56;98610.28;5093815;28;20099;-68
2021/11/28 02:33:43;;;;;;;158.90;60.17;;;;;;;8.78;88.46;98619.84;5095838;28;20266;-68
2021/11/28 02:36:09;;;;;;;172.68;63.22;;;;;;;8.54;89.29;98625.31;5099936;28;20085;-68
2021/11/28 02:38:35;;;;;;;172.85;65.80;;;;;;;8.52;89.63;98628.13;5101080;28;20028;-68
2021/11/28 02:41:01;;;;;;;184.10;67.78;;;;;;;8.51;90.18;98609.84;5093927;28;20047;-68
2021/11/28 02:43:29;;;;;;;183.85;66.50;;;;;;;8.54;90.20;98612.13;5099712;28;20039;-67
2021/11/28 02:45:54;;;;;;;180.48;65.30;;;;;;;8.60;90.05;98614.06;5101496;28;20032;-69
2021/11/28 02:48:20;;;;;;;174.40;65.55;;;;;;;8.67;89.83;98622.09;5094117;28;20359;-68
2021/11/28 02:50:46;;;;;;;157.48;63.08;;;;;;;8.61;90.17;98631.53;5099086;28;20036;-68
2021/11/28 02:53:13;;;;;;;165.95;60.92;;;;;;;8.59;90.22;98628.25;5100878;28;20317;-68
2021/11/28 02:55:48;;;;;;;171.05;61.28;;;;;;;8.70;89.35;98627.84;5095671;28;20210;-69
2021/11/28 02:58:17;;;;;;;160.38;58.92;;;;;;;8.58;89.55;98616.88;5068140;28;20328;-68
2021/11/28 03:00:46;;;;;;;162.15;60.60;;;;;;;8.60;90.54;98620.16;5096353;28;20553;-68
2021/11/28 03:03:12;;;;;;;163.23;61.95;;;;;;;8.75;89.56;98617.56;5100771;28;20102;-68
2021/11/28 03:05:38;;;;;;;152.18;58.67;;;;;;;8.80;88.80;98614.41;5096919;28;20083;-67
2021/11/28 03:08:03;;;;;;;166.43;61.35;;;;;;;8.77;88.41;98615.56;5093541;28;20057;-69
2021/11/28 03:10:33;;;;;;;158.52;59.65;;;;;;;8.82;88.50;98621.13;5093168;28;20067;-68
2021/11/28 03:13:00;;;;;;;164.43;59.75;;;;;;;8.81;88.39;98606.28;5096645;28;20036;-68
2021/11/28 03:15:26;;;;;;;157.50;58.60;;;;;;;8.84;86.87;98619.13;5100856;28;20051;-68
2021/11/28 03:17:52;;;;;;;153.40;56.80;;;;;;;8.70;88.47;98611.19;5096463;28;20024;-68
2021/11/28 03:20:18;;;;;;;146.65;57.58;;;;;;;8.79;87.12;98599.56;5099392;28;20036;-68
2021/11/28 03:22:48;;;;;;;153.35;59.63;;;;;;;8.60;88.52;98608.78;5082795;28;20344;-68
2021/11/28 03:25:16;;;;;;;153.68;55.35;;;;;;;8.54;88.74;98594.47;5081317;28;20117;-69
2021/11/28 03:27:43;;;;;;;153.63;60.45;;;;;;;8.53;89.03;98595.47;5077700;28;20077;-67
2021/11/28 03:30:09;;;;;;;167.73;66.22;;;;;;;8.48;88.71;98584.63;5092430;28;20333;-68
2021/11/28 03:32:34;;;;;;;146.48;58.17;;;;;;;8.60;85.88;98582.41;5100994;28;20080;-69
2021/11/28 03:34:59;;;;;;;188.20;57.65;;;;;;;8.52;86.27;98571.91;5097128;28;20048;-68
2021/11/28 03:37:25;;;;;;;138.45;56.88;;;;;;;7.95;87.63;98564.34;5100098;28;20263;-68
2021/11/28 03:39:51;;;;;;;145.35;58.90;;;;;;;7.88;88.38;98563.41;5083188;28;20054;-68
2021/11/28 03:42:16;;;;;;;158.55;59.40;;;;;;;7.88;89.43;98566.03;5096965;28;20059;-67
2021/11/28 03:44:42;;;;;;;145.30;59.83;;;;;;;7.77;89.49;98554.06;5099592;28;20053;-68
2021/11/28 03:47:07;;;;;;;146.70;59.38;;;;;;;7.68;90.57;98557.75;5098697;28;20042;-68
2021/11/28 03:49:33;;;;;;;146.30;57.25;;;;;;;7.81;90.10;98559.81;5100836;28;20122;-68
2021/11/28 03:51:58;;;;;;;134.00;57.22;;;;;;;7.77;89.47;98577.78;5098236;28;20052;-69
2021/11/28 03:54:24;;;;;;;148.50;57.80;;;;;;;7.69;88.76;98591.81;5102338;28;20060;-68
2021/11/28 03:56:50;;;;;;;153.35;59.97;;;;;;;7.99;88.09;98594.63;5086386;28;20103;-67
2021/11/28 03:59:16;;;;;;;142.77;62.20;;;;;;;8.07;86.86;98599.84;5086460;28;20024;-68
2021/11/28 04:01:41;;;;;;;161.75;67.60;;;;;;;7.97;87.47;98610.63;5101172;28;20110;-68
2021/11/28 04:04:07;;;;;;;153.20;64.15;;;;;;;7.90;88.35;98609.66;5101038;28;20040;-69
2021/11/28 04:06:33;;;;;;;148.48;62.03;;;;;;;7.94;87.88;98594.34;5104975;28;20218;-68
2021/11/28 04:08:58;;;;;;;162.55;63.63;;;;;;;8.15;86.45;98583.16;5101860;28;20036;-68
2021/11/28 04:11:24;;;;;;;152.73;60.13;;;;;;;8.15;85.43;98569.97;5084601;28;20070;-69
2021/11/28 04:13:49;;;;;;;151.25;60.63;;;;;;;8.17;85.47;98573.25;5104830;28;20070;-68
2021/11/28 04:16:15;;;;;;;150.25;59.75;;;;;;;8.07;85.31;98573.50;5097988;28;20087;-68
2021/11/28 04:18:40;;;;;;;144.75;57.60;;;;;;;7.79;85.82;98567.06;5101129;28;20036;-68
2021/11/28 04:21:06;;;;;;;153.27;58.58;;;;;;;7.72;86.79;98576.66;5102605;28;20039;-68
2021/11/28 04:23:32;;;;;;;142.40;56.97;;;;;;;7.74;86.95;98567.59;5104175;28;20059;-68
2021/11/28 04:25:57;;;;;;;146.85;57.35;;;;;;;7.74;86.34;98572.03;5102462;28;20035;-68
2021/11/28 04:28:23;;;;;;;159.43;62.30;;;;;;;7.58;87.08;98609.81;5104754;28;20055;-68
2021/11/28 04:30:48;;;;;;;139.35;58.03;;;;;;;7.53;88.11;98626.13;5097974;28;20032;-68
2021/11/28 04:33:15;;;;;;;142.13;57.53;;;;;;;7.76;86.68;98633.28;5102951;28;20032;-68
2021/11/28 04:35:42;;;;;;;146.18;60.83;;;;;;;7.75;86.88;98661.47;5102350;28;20051;-68
2021/11/28 04:38:08;;;;;;;151.48;62.13;;;;;;;7.64;87.01;98670.56;5103945;28;20032;-68
2021/11/28 04:40:34;;;;;;;148.38;60.75;;;;;;;7.78;86.06;98676.94;5099648;28;20122;-68
2021/11/28 04:42:59;;;;;;;145.07;59.72;;;;;;;7.64;86.27;98696.91;5095991;28;20240;-69
2021/11/28 04:45:25;;;;;;;144.40;59.47;;;;;;;7.69;86.40;98699.84;5097584;28;20090;-68
2021/11/28 04:47:51;;;;;;;141.43;56.35;;;;;;;7.64;86.19;98686.34;5097835;28;20051;-67
2021/11/28 04:50:17;;;;;;;160.90;64.97;;;;;;;7.74;86.34;98686.16;5101912;28;20036;-68
2021/11/28 04:52:43;;;;;;;153.27;61.08;;;;;;;7.59;87.23;98701.03;5103563;28;20048;-68
2021/11/28 04:55:11;;;;;;;164.15;58.50;;;;;;;7.55;86.34;98726.88;5096930;28;20051;-68
2021/11/28 04:57:36;;;;;;;152.07;55.67;;;;;;;7.54;87.25;98735.78;5097689;28;20067;-68
2021/11/28 05:00:08;;;;;;;180.85;56.08;;;;;;;7.51;86.33;98746.66;5103699;28;20032;-68
2021/11/28 05:02:33;;;;;;;126.03;54.30;;;;;;;7.30;87.83;98743.72;5101310;28;20040;-68
2021/11/28 05:04:59;;;;;;;146.68;51.92;;;;;;;7.39;87.33;98747.16;5104022;28;20331;-68
2021/11/28 05:07:24;;;;;;;210.20;52.90;;;;;;;7.44;86.86;98748.31;5078656;28;20340;-68
2021/11/28 05:09:49;;;;;;;99.10;42.13;;;;;;;7.48;85.34;98733.00;5099127;28;20089;-68
2021/11/28 05:12:15;;;;;;;117.00;40.72;;;;;;;7.50;85.34;98752.09;5085323;28;20108;-68
2021/11/28 05:14:40;;;;;;;120.80;38.22;;;;;;;7.25;86.10;98748.63;5097933;28;20040;-68
2021/11/28 05:17:06;;;;;;;186.73;41.33;;;;;;;7.28;85.97;98735.13;5096380;28;20103;-68
2021/11/28 05:19:31;;;;;;;103.18;40.40;;;;;;;7.29;85.97;98732.34;5101252;28;20247;-68
2021/11/28 05:21:57;;;;;;;124.13;42.00;;;;;;;7.20;86.63;98730.69;5103064;28;20093;-68
2021/11/28 05:24:22;;;;;;;105.43;41.80;;;;;;;7.37;84.61;98710.44;5096461;28;20027;-68
2021/11/28 05:26:47;;;;;;;95.05;41.67;;;;;;;7.17;85.36;98717.84;5094916;28;20299;-68
2021/11/28 05:29:14;;;;;;;100.90;42.28;;;;;;;7.20;84.54;98709.63;5103056;28;20254;-68
2021/11/28 05:31:40;;;;;;;89.40;41.58;;;;;;;7.27;82.94;98712.41;5101788;28;20337;-68
2021/11/28 05:34:05;;;;;;;90.88;36.45;;;;;;;7.00;82.82;98710.94;5083427;28;20024;-69
2021/11/28 05:36:30;;;;;;;101.53;38.00;;;;;;;6.90;80.77;98719.00;5082988;28;20035;-68
2021/11/28 05:38:56;;;;;;;76.03;35.85;;;;;;;6.90;82.32;98705.84;5094139;28;20095;-68
2021/11/28 05:41:22;;;;;;;83.22;37.80;;;;;;;6.80;82.11;98704.34;5103969;28;20035;-67
2021/11/28 05:43:49;;;;;;;90.20;39.35;;;;;;;6.70;82.64;98715.03;5100579;28;20089;-67
2021/11/28 05:46:14;;;;;;;78.03;37.67;;;;;;;6.68;83.17;98715.19;5094367;28;20075;-68
2021/11/28 05:48:40;;;;;;;80.00;37.80;;;;;;;6.72;82.17;98732.31;5095445;28;20103;-69
2021/11/28 05:51:05;;;;;;;73.43;37.20;;;;;;;6.81;80.70;98727.03;5090623;28;20043;-68
2021/11/28 05:53:32;;;;;;;85.30;40.47;;;;;;;6.80;82.72;98728.84;5096417;28;20090;-68
2021/11/28 05:55:58;;;;;;;90.70;44.25;;;;;;;6.73;83.89;98715.53;5094280;28;20032;-67
2021/11/28 05:58:23;;;;;;;106.82;48.40;;;;;;;6.89;84.66;98714.72;5077708;28;20062;-67
2021/11/28 06:00:49;;;;;;;103.68;48.47;;;;;;;6.80;86.09;98714.88;5102307;28;20314;-69
2021/11/28 06:03:15;;;;;;;103.88;48.08;;;;;;;6.96;86.07;98699.09;5099859;28;20092;-68
2021/11/28 06:05:44;;;;;;;105.20;44.58;;;;;;;7.05;84.02;98698.94;5093830;28;20024;-68
2021/11/28 06:08:09;;;;;;;89.80;41.90;;;;;;;7.13;83.62;98702.53;5088103;28;20056;-68
2021/11/28 06:10:34;;;;;;;91.65;40.38;;;;;;;7.25;82.42;98709.13;5094764;28;20199;-68
2021/11/28 06:13:00;;;;;;;81.57;38.80;;;;;;;7.01;81.58;98725.75;5094894;28;20069;-68
2021/11/28 06:15:25;;;;;;;76.53;38.33;;;;;;;6.87;82.00;98724.59;5076578;28;20073;-68
2021/11/28 06:17:51;;;;;;;83.93;41.22;;;;;;;6.93;83.26;98725.75;5096028;28;20217;-67
2021/11/28 06:20:16;;;;;;;94.72;40.20;;;;;;;7.01;82.78;98731.00;5093870;28;20309;-67
2021/11/28 06:22:42;;;;;;;83.78;40.20;;;;;;;6.90;84.45;98718.19;5094729;28;20023;-68
2021/11/28 06:25:08;;;;;;;93.85;42.63;;;;;;;6.73;85.34;98731.31;5098738;28;20036;-67
2021/11/28 06:27:33;;;;;;;93.30;42.72;;;;;;;6.85;86.06;98731.00;5101605;28;20256;-69
2021/11/28 06:29:59;;;;;;;94.90;42.63;;;;;;;7.14;86.26;98749.78;5097961;28;20094;-68
2021/11/28 06:32:24;;;;;;;97.18;45.45;;;;;;;7.20;86.70;98769.34;5096862;28;20028;-67
2021/11/28 06:34:50;;;;;;;124.88;48.20;;;;;;;7.29;87.30;98765.75;5097022;28;20031;-68
2021/11/28 06:37:15;;;;;;;109.88;45.65;;;;;;;7.39;86.96;98774.31;5100870;28;20229;-69
2021/11/28 06:39:41;;;;;;;95.40;45.92;;;;;;;7.63;86.24;98769.03;5097489;28;20032;-69
2021/11/28 06:42:06;;;;;;;95.82;45.30;;;;;;;7.78;85.23;98774.44;5095337;28;20079;-68
2021/11/28 06:44:35;;;;;;;98.03;45.28;;;;;;;7.94;84.91;98769.13;5092941;28;20375;-68
2021/11/28 06:47:00;;;;;;;96.22;45.92;;;;;;;7.85;84.84;98770.13;5094304;28;20197;-68
2021/11/28 06:49:27;;;;;;;153.50;56.80;;;;;;;7.98;85.90;98775.69;5100371;28;20039;-68
2021/11/28 06:51:54;;;;;;;130.05;51.10;;;;;;;8.21;84.22;98783.69;5101321;28;20032;-68
2021/11/28 06:54:20;;;;;;;129.05;53.28;;;;;;;8.40;84.33;98777.25;5098182;28;20361;-68
2021/11/28 06:56:45;;;;;;;93.78;44.47;;;;;;;8.72;82.54;98786.84;5101777;28;20091;-68
2021/11/28 06:59:11;;;;;;;85.40;40.88;;;;;;;8.70;83.07;98790.63;5096293;28;20036;-68
2021/11/28 07:01:36;;;;;;;98.43;46.03;;;;;;;8.58;84.13;98791.03;5093632;28;20337;-68
2021/11/28 07:04:02;;;;;;;93.15;44.25;;;;;;;8.78;84.16;98801.97;5093634;28;20031;-68
2021/11/28 07:06:27;;;;;;;99.63;48.30;;;;;;;9.18;82.32;98806.19;5098240;28;20032;-68
2021/11/28 07:08:53;;;;;;;98.55;47.80;;;;;;;9.53;80.46;98811.88;5100681;28;20332;-68
2021/11/28 07:11:18;;;;;;;117.00;54.90;;;;;;;9.80;79.21;98813.94;5094515;28;20042;-67
2021/11/28 07:13:45;;;;;;;106.43;50.70;;;;;;;10.11;77.16;98799.75;5094747;28;20043;-68
2021/11/28 07:16:11;;;;;;;104.22;51.47;;;;;;;10.08;77.71;98810.69;5093408;28;20044;-68
2021/11/28 07:18:39;;;;;;;81.57;43.75;;;;;;;10.00;77.65;98811.59;5092982;28;20038;-68
2021/11/28 07:21:05;;;;;;;90.38;44.65;;;;;;;9.92;79.07;98809.88;5100599;28;20077;-67
2021/11/28 07:23:30;;;;;;;85.32;44.25;;;;;;;9.79;80.01;98785.06;5100857;28;20281;-69
2021/11/28 07:25:55;;;;;;;76.60;39.03;;;;;;;9.81;80.37;98801.56;5096510;28;20038;-68
2021/11/28 07:28:21;;;;;;;63.30;34.38;;;;;;;9.58;80.27;98788.38;5101328;28;20099;-68
2021/11/28 07:30:49;;;;;;;67.97;34.05;;;;;;;9.61;80.35;98790.66;5078013;28;20199;-68
2021/11/28 07:33:16;;;;;;;66.32;34.95;;;;;;;9.80;79.65;98778.75;5093308;28;20092;-68
2021/11/28 07:35:42;;;;;;;79.00;39.20;;;;;;;9.36;83.56;98774.19;5092520;28;20036;-68
2021/11/28 07:38:07;;;;;;;94.13;49.25;;;;;;;9.29;84.41;98774.06;5094110;28;20069;-67
2021/11/28 07:40:33;;;;;;;108.53;53.40;;;;;;;8.99;84.91;98768.84;5099279;28;20363;-67
2021/11/28 07:42:58;;;;;;;114.75;55.55;;;;;;;9.24;84.45;98771.13;5100385;28;20194;-68
2021/11/28 07:45:24;;;;;;;110.40;54.17;;;;;;;9.48;83.42;98774.59;5093215;28;20028;-68
2021/11/28 07:47:49;;;;;;;116.93;58.15;;;;;;;9.86;81.15;98770.09;5099698;28;20031;-68
2021/11/28 07:50:15;;;;;;;110.78;56.20;;;;;;;9.58;81.66;98769.88;5100509;28;20058;-68
2021/11/28 07:52:41;;;;;;;120.97;57.15;;;;;;;9.69;81.95;98790.59;5092524;28;20324;-68
2021/11/28 07:55:07;;;;;;;105.68;54.60;;;;;;;9.86;81.43;98801.84;5091884;28;20036;-68
2021/11/28 07:57:32;;;;;;;114.53;57.85;;;;;;;10.20;80.53;98809.28;5090102;28;20016;-68
2021/11/28 07:59:58;;;;;;;103.03;53.65;;;;;;;10.38;80.25;98811.56;5080845;28;20203;-69
2021/11/28 08:02:23;;;;;;;109.20;56.38;;;;;;;10.53;78.87;98813.22;5080251;28;20055;-68
2021/11/28 08:04:49;;;;;;;110.60;56.42;;;;;;;10.84;78.00;98802.38;5080922;28;20032;-68
2021/11/28 08:07:14;;;;;;;111.35;53.35;;;;;;;10.94;77.60;98802.09;5080556;28;20217;-68
2021/11/28 08:09:40;;;;;;;103.65;52.63;;;;;;;10.98;79.03;98805.19;5080199;28;20036;-69
2021/11/28 08:12:06;;;;;;;107.57;58.33;;;;;;;11.02;78.88;98814.38;5080697;28;20078;-68
2021/11/28 08:14:31;;;;;;;88.53;48.80;;;;;;;11.07;79.25;98822.59;5062673;28;20032;-68
2021/11/28 08:16:58;;;;;;;82.88;45.65;;;;;;;10.84;79.94;98809.50;5080478;28;20055;-68
2021/11/28 08:19:23;;;;;;;76.55;41.88;;;;;;;11.12;78.36;98818.38;5080545;28;20052;-68
2021/11/28 08:21:49;;;;;;;75.90;40.80;;;;;;;11.13;78.73;98821.84;5080829;28;20229;-68
2021/11/28 08:24:14;;;;;;;69.20;39.58;;;;;;;11.13;78.48;98817.38;5080913;28;20043;-69
2021/11/28 08:26:40;;;;;;;71.32;40.15;;;;;;;11.10;79.67;98819.56;5062352;28;20337;-68
2021/11/28 08:29:07;;;;;;;78.07;43.00;;;;;;;11.16;78.72;98816.16;5062638;28;20146;-68
2021/11/28 08:31:33;;;;;;;80.22;41.90;;;;;;;11.29;77.65;98813.66;5080592;28;20040;-68
2021/11/28 08:33:58;;;;;;;79.97;43.85;;;;;;;11.31;77.88;98816.94;5080121;28;20278;-68
2021/11/28 08:36:24;;;;;;;89.63;44.80;;;;;;;11.44;77.94;98821.53;5080073;28;20229;-68
2021/11/28 08:38:51;;;;;;;84.65;47.08;;;;;;;11.42;78.53;98816.44;5082924;28;20070;-68
2021/11/28 08:41:21;;;;;;;94.85;51.10;;;;;;;11.26;78.00;98818.50;5084062;28;20033;-69
2021/11/28 08:43:47;;;;;;;96.50;48.85;;;;;;;11.17;78.20;98833.72;5084349;28;20024;-69
2021/11/28 08:46:13;;;;;;;88.60;47.42;;;;;;;11.04;78.78;98821.16;5084027;28;20039;-68
2021/11/28 08:48:39;;;;;;;91.13;47.10;;;;;;;11.02;78.51;98828.47;5083846;28;20037;-68
2021/11/28 08:51:05;;;;;;;94.13;47.47;;;;;;;11.00;79.83;98827.00;5083756;28;20330;-68
2021/11/28 08:53:31;;;;;;;94.05;49.38;;;;;;;11.06;80.27;98820.97;5064395;28;20035;-68
2021/11/28 08:55:56;;;;;;;96.68;49.40;;;;;;;11.16;80.89;98837.38;5083753;28;20096;-68
2021/11/28 08:58:21;;;;;;;90.07;47.38;;;;;;;11.27;80.19;98826.28;5083685;28;20064;-68
2021/11/28 09:00:47;;;;;;;84.93;45.42;;;;;;;11.21;80.32;98819.06;5084242;28;20044;-69
2021/11/28 09:03:14;;;;;;;84.97;45.00;;;;;;;11.49;79.32;98816.53;5065476;28;20024;-68
2021/11/28 09:05:39;;;;;;;82.72;44.78;;;;;;;11.60;78.57;98817.84;5083635;28;20043;-68
2021/11/28 09:08:05;;;;;;;80.00;44.20;;;;;;;11.64;78.27;98825.22;5083080;28;20040;-68
2021/11/28 09:10:31;;;;;;;85.28;43.78;;;;;;;11.72;77.92;98816.31;5083502;28;20060;-68
2021/11/28 09:12:57;;;;;;;85.22;43.55;;;;;;;11.62;77.96;98813.16;5083798;28;20032;-68
2021/11/28 09:15:25;;;;;;;86.97;45.45;;;;;;;11.32;80.02;98828.34;5083462;28;20037;-68
2021/11/28 09:18:18;;;;;;;86.43;43.17;;;;;;;11.26;80.32;98823.81;5083270;28;20033;-69
2021/11/28 09:20:43;;;;;;;89.53;46.78;;;;;;;11.35;80.89;98810.25;5082885;28;20269;-69
2021/11/28 09:25:35;;;;;;;125.03;59.40;;;;;;;11.14;81.94;98815.53;5083792;28;20032;-68
2021/11/28 09:28:01;;;;;;;95.20;47.00;;;;;;;11.27;82.22;98807.72;5082562;28;20305;-68
2021/11/28 09:30:29;;;;;;;77.10;40.63;;;;;;;11.56;80.62;98812.09;5084424;28;20051;-68
2021/11/28 09:32:56;;;;;;;79.72;42.13;;;;;;;11.78;79.77;98812.91;5083293;28;20323;-68
2021/11/28 09:35:25;;;;;;;78.60;41.42;;;;;;;11.92;79.59;98808.53;5084497;28;20106;-69
2021/11/28 09:37:53;;;;;;;77.63;41.90;;;;;;;12.05;79.08;98812.09;5083078;28;20337;-69
2021/11/28 09:40:18;;;;;;;77.10;40.22;;;;;;;12.08;78.92;98802.91;5057312;28;20092;-68
2021/11/28 09:42:51;;;;;;;80.13;41.40;;;;;;;12.47;76.99;98800.50;5084138;28;20036;-68
2021/11/28 09:45:18;;;;;;;74.10;36.60;;;;;;;12.49;75.10;98805.63;5060257;28;20222;-68
2021/11/28 09:47:45;;;;;;;140.02;65.28;;;;;;;12.43;75.33;98803.72;5082752;28;20047;-68
2021/11/28 09:50:12;;;;;;;96.15;47.65;;;;;;;12.61;75.83;98795.25;5082778;28;20087;-69
2021/11/28 09:52:38;;;;;;;90.47;43.70;;;;;;;12.60;76.45;98775.03;5059403;28;20028;-69
2021/11/28 09:55:10;;;;;;;77.15;40.70;;;;;;;12.11;78.44;98792.75;5082157;28;20100;-68
2021/11/28 09:57:36;;;;;;;75.55;39.58;;;;;;;11.78;79.76;98787.22;5081332;28;20360;-67
2021/11/28 10:00:05;;;;;;;77.53;39.42;;;;;;;11.82;80.61;98780.50;5084139;28;20032;-68
2021/11/28 10:02:34;;;;;;;73.45;38.63;;;;;;;11.62;80.90;98773.38;5083726;28;20070;-68
2021/11/28 10:05:03;;;;;;;76.80;41.17;;;;;;;11.51;82.11;98782.69;5082622;28;20048;-68
2021/11/28 10:07:29;;;;;;;80.13;41.72;;;;;;;11.42;82.15;98794.41;5083115;28;20215;-68
2021/11/28 10:09:56;;;;;;;79.40;41.72;;;;;;;11.59;81.27;98800.28;5083867;28;20338;-69
2021/11/28 10:12:30;;;;;;;79.25;41.17;;;;;;;11.77;80.89;98782.06;5082561;28;20036;-68
2021/11/28 10:15:01;;;;;;;92.05;44.90;;;;;;;11.86;81.11;98775.63;5082044;28;20036;-68
2021/11/28 10:17:29;;;;;;;82.25;43.13;;;;;;;12.07;80.43;98785.38;5082148;28;20028;-68
2021/11/28 10:19:57;;;;;;;76.35;40.33;;;;;;;12.22;78.77;98774.63;5082142;28;20076;-68
2021/11/28 10:22:23;;;;;;;75.18;40.10;;;;;;;12.34;78.66;98760.59;5063135;28;20020;-68
2021/11/28 10:24:53;;;;;;;75.13;37.53;;;;;;;12.19;78.27;98743.16;5081671;28;20036;-68
2021/11/28 10:27:19;;;;;;;75.85;39.97;;;;;;;11.98;80.77;98723.69;5082244;28;20036;-68
2021/11/28 10:29:44;;;;;;;76.55;38.03;;;;;;;11.81;81.68;98727.66;5081916;28;20037;-68
2021/11/28 10:32:12;;;;;;;65.53;33.38;;;;;;;11.55;82.41;98741.53;5081789;28;20036;-68
2021/11/28 10:34:43;;;;;;;59.00;32.17;;;;;;;11.62;82.15;98737.09;5081524;28;20049;-68
2021/11/28 10:37:20;;;;;;;64.45;33.33;;;;;;;11.88;82.22;98741.78;5081595;28;20024;-68
2021/11/28 10:39:51;;;;;;;60.75;31.30;;;;;;;12.07;81.04;98749.03;5081690;28;20036;-68
2021/11/28 10:42:31;;;;;;;69.10;32.97;;;;;;;12.30;80.45;98739.97;5081975;28;20098;-68
2021/11/28 10:45:17;;;;;;;67.15;33.30;;;;;;;12.38;80.10;98729.16;5081970;28;20028;-68
2021/11/28 10:47:47;;;;;;;66.45;33.55;;;;;;;12.26;80.53;98717.47;5081666;28;20129;-68
2021/11/28 10:50:12;;;;;;;58.50;32.03;;;;;;;12.28;81.04;98718.09;5081706;28;20417;-69
2021/11/28 10:52:38;;;;;;;51.40;27.98;;;;;;;12.66;78.90;98711.31;5081343;28;20221;-68
2021/11/28 10:55:28;;;;;;;56.72;27.52;;;;;;;12.61;79.09;98704.97;5081503;28;20047;-68
2021/11/28 10:58:13;;;;;;;65.22;29.90;;;;;;;12.57;78.33;98698.44;5081777;28;20040;-68
2021/11/28 11:00:59;;;;;;;62.70;30.40;;;;;;;12.75;78.27;98699.50;5080738;28;20051;-69
2021/11/28 11:03:25;;;;;;;65.35;32.22;;;;;;;12.44;81.00;98696.53;5081247;28;20055;-68
2021/11/28 11:05:53;;;;;;;74.30;36.92;;;;;;;12.24;81.41;98687.66;5081200;28;20222;-68
2021/11/28 11:08:24;;;;;;;71.18;35.05;;;;;;;12.09;82.24;98696.59;5080209;28;20048;-68
2021/11/28 11:11:05;;;;;;;54.55;28.75;;;;;;;11.99;83.63;98712.06;5081721;28;20028;-68
2021/11/28 11:13:31;;;;;;;61.25;30.52;;;;;;;12.26;81.87;98704.22;5081337;28;20047;-69
2021/11/28 11:15:56;;;;;;;58.88;31.23;;;;;;;12.11;83.75;98707.00;5081058;28;20329;-69
2021/11/28 11:18:23;;;;;;;65.30;31.50;;;;;;;11.98;84.32;98714.91;5079898;28;20070;-68
2021/11/28 11:21:00;;;;;;;57.78;31.30;;;;;;;12.22;83.54;98732.97;5081658;28;20028;-68
2021/11/28 11:23:39;;;;;;;55.58;29.52;;;;;;;12.37;83.59;98727.53;5080615;28;20034;-68
2021/11/28 11:26:24;;;;;;;61.78;31.92;;;;;;;12.27;83.60;98735.03;5081166;28;20039;-68
2021/11/28 11:29:11;;;;;;;73.80;34.05;;;;;;;12.15;83.96;98726.81;5081200;28;20112;-68